createdAt,value
2018-03-02T00:00:14.537Z,24.20
2018-03-02T00:20:48.905Z,22.58
2018-03-02T00:41:24.466Z,22.73
2018-03-02T01:02:00.970Z,24.98
2018-03-02T01:22:36.242Z,23.67
2018-03-02T01:43:10.834Z,19.45
2018-03-02T02:03:44.048Z,29.70
2018-03-02T02:24:18.987Z,23.00
2018-03-02T02:44:53.332Z,22.62
2018-03-02T03:05:26.706Z,25.67
2018-03-02T03:26:02.647Z,24.90
2018-03-02T03:46:40.994Z,33.17
2018-03-02T04:07:20.877Z,24.25
2018-03-02T04:27:56.446Z,25.90
2018-03-02T04:48:31.961Z,35.60
2018-03-02T05:09:06.991Z,31.90
2018-03-02T05:29:42.264Z,31.33
2018-03-02T05:50:16.637Z,27.73
2018-03-02T06:10:50.659Z,28.00
2018-03-02T06:31:28.111Z,33.35
2018-03-02T06:52:06.121Z,27.35
2018-03-02T07:12:38.319Z,30.20
2018-03-02T07:33:13.591Z,28.50
2018-03-02T07:53:46.710Z,30.60
2018-03-02T08:14:21.979Z,25.12
2018-03-02T08:34:57.870Z,43.10
2018-03-02T08:55:32.807Z,37.25
2018-03-02T09:16:06.920Z,24.77
2018-03-02T09:36:40.919Z,32.08
2018-03-02T09:57:14.963Z,29.90
2018-03-02T10:17:48.574Z,35.53
2018-03-02T10:38:24.585Z,36.55
2018-03-02T10:58:59.859Z,37.08
2018-03-02T11:19:35.276Z,34.30
2018-03-02T11:40:10.097Z,34.80
2018-03-02T12:00:46.741Z,36.95
2018-03-02T12:21:20.640Z,39.40
2018-03-02T12:41:58.209Z,40.85
2018-03-02T13:02:31.184Z,37.83
2018-03-02T13:23:04.399Z,49.33
2018-03-02T13:43:39.581Z,38.28
2018-03-02T14:04:31.256Z,38.67
2018-03-02T14:25:08.246Z,27.77
2018-03-02T14:45:48.127Z,37.38
2018-03-02T15:06:23.705Z,33.03
2018-03-02T15:26:55.603Z,43.92
2018-03-02T15:47:31.184Z,34.90
2018-03-02T16:08:03.379Z,41.47
2018-03-02T16:28:39.892Z,37.50
2018-03-02T16:49:15.461Z,51.67
2018-03-02T17:09:51.360Z,68.65
2018-03-02T17:30:24.471Z,52.40
2018-03-02T17:50:59.799Z,53.03
2018-03-02T18:11:30.713Z,43.75
2018-03-02T18:32:03.840Z,50.20
2018-03-02T18:52:38.187Z,52.00
2018-03-02T19:13:14.385Z,48.63
2018-03-02T19:33:48.878Z,52.33
2018-03-02T19:54:27.313Z,47.92
2018-03-02T20:15:01.363Z,60.00
2018-03-02T20:35:39.164Z,57.03
2018-03-02T20:56:17.093Z,58.33
2018-03-02T21:16:53.109Z,53.00
2018-03-02T21:37:25.896Z,47.75
2018-03-02T21:58:03.322Z,60.55
2018-03-02T22:18:36.833Z,47.35
2018-03-02T22:39:14.784Z,50.03
2018-03-02T22:59:49.259Z,52.20
2018-03-02T23:20:25.330Z,74.65
2018-03-02T23:41:03.059Z,60.25
